Pentress, West Virginia
Current Conditions -  °F | °C
As of 2:53 PM on Saturday 20 Dec 2014 (Local Time) from KMGW Reporting Station
Broken Clouds Broken Clouds  
Wind Chill: 32°   Ceiling: 2900
Heat Index: 36°   Visibility: 10mi
Dew Point: 20°   Wind: 5mph
Humidity: 52%   Direction: 20°NNE
Pressure: 30.2"   Gusts: NA
Location:  39.71°N, 80.16°W
Report Text: KMGW 201953Z 02004KT 10SM BKN029 02/M07 A3020 RMK AO2 SLP238 T00221067
Loading
Personal Weather Stations






























Interactive Weather Map New forecast layout! Learn more

10-Day Weather Forecast

Advertisements
Track Severe Weather on mobile